Time,TemperatureF,DewpointF,PressureIn,WindDirection,WindDirectionDegrees,WindSpeedMPH,WindSpeedGustMPH,Humidity,HourlyPrecipIn,Conditions,Clouds,dailyrainin,SoftwareType,DateUTC
2013-05-24 00:00:00,42.4,41.1,30.15,NNW,338,1.0,5.0,95,0.00,,---,0.00,VWS V14.01,2013-05-24 04:00:00,
2013-05-24 01:00:00,41.1,40.0,30.16,North,0,0.0,3.0,96,0.00,,---,0.00,VWS V14.01,2013-05-24 05:00:00,
2013-05-24 02:00:00,41.9,41.1,30.17,NNW,338,2.0,5.0,97,0.00,,---,0.00,VWS V14.01,2013-05-24 06:00:00,
2013-05-24 03:00:00,42.9,41.6,30.17,NW,315,2.0,8.0,95,0.00,,---,0.00,VWS V14.01,2013-05-24 07:00:00,
2013-05-24 04:00:00,42.6,40.7,30.19,NW,315,3.0,9.0,93,0.00,,---,0.00,VWS V14.01,2013-05-24 08:00:00,
2013-05-24 05:00:00,41.6,38.0,30.22,NNE,22,3.0,11.0,87,0.00,,---,0.00,VWS V14.01,2013-05-24 09:00:00,
2013-05-24 06:00:00,39.7,35.6,30.24,NNE,22,4.0,13.0,85,0.00,,---,0.00,VWS V14.01,2013-05-24 10:00:00,
2013-05-24 07:00:00,38.8,34.4,30.26,NE,45,5.0,13.0,84,0.00,,---,0.00,VWS V14.01,2013-05-24 11:00:00,
2013-05-24 08:00:00,39.3,34.0,30.29,NNE,22,5.0,11.0,81,0.00,,---,0.00,VWS V14.01,2013-05-24 12:00:00,
2013-05-24 09:00:00,40.0,33.4,30.31,NNE,22,6.0,14.0,77,0.00,,---,0.00,VWS V14.01,2013-05-24 13:00:00,
2013-05-24 10:00:00,41.2,34.2,30.33,NNE,22,6.0,14.0,76,0.00,,---,0.00,VWS V14.01,2013-05-24 14:00:00,
2013-05-24 11:00:00,42.4,34.0,30.35,NNE,22,7.0,17.0,72,0.00,,---,0.00,VWS V14.01,2013-05-24 15:00:00,
2013-05-24 12:00:00,43.8,35.7,30.36,NNE,22,7.0,18.0,73,0.00,,---,0.00,VWS V14.01,2013-05-24 16:00:00,
2013-05-24 13:00:00,44.7,36.2,30.37,NNW,338,6.0,13.0,72,0.00,,---,0.00,VWS V14.01,2013-05-24 17:00:00,
2013-05-24 14:00:00,45.9,36.0,30.37,NNW,338,6.0,16.0,68,0.00,,---,0.00,VWS V14.01,2013-05-24 18:00:00,
2013-05-24 15:00:00,48.0,36.4,30.36,NNW,338,6.0,16.0,64,0.00,,---,0.00,VWS V14.01,2013-05-24 19:00:00,
2013-05-24 16:00:00,49.2,35.9,30.37,NW,315,6.0,15.0,60,0.00,,---,0.00,VWS V14.01,2013-05-24 20:00:00,
2013-05-24 17:00:00,49.2,35.9,30.37,NW,315,6.0,15.0,60,0.00,,---,0.00,VWS V14.01,2013-05-24 21:00:00,
2013-05-24 17:27:00,51.6,36.9,30.34,NNW,328,4.0,9.0,57,0.00,,---,0.00,VWS V14.01,2013-05-24 21:27:00,
2013-05-24 17:32:00,52.0,36.8,30.34,NE,56,6.0,12.0,56,0.00,,---,0.00,VWS V14.01,2013-05-24 21:32:00,
2013-05-24 17:37:00,52.4,36.7,30.35,North,6,12.0,14.0,55,0.00,,---,0.00,VWS V14.01,2013-05-24 21:37:00,
2013-05-24 17:42:00,52.4,37.2,30.34,NE,41,8.0,14.0,56,0.00,,---,0.00,VWS V14.01,2013-05-24 21:42:00,
2013-05-24 17:47:00,52.8,38.0,30.34,NE,46,3.0,14.0,57,0.00,,---,0.00,VWS V14.01,2013-05-24 21:47:00,
2013-05-24 17:52:00,53.0,36.3,30.34,NNE,30,7.0,14.0,53,0.00,,---,0.00,VWS V14.01,2013-05-24 21:52:00,
2013-05-24 17:57:00,53.0,37.3,30.34,North,357,6.0,14.0,55,0.00,,---,0.00,VWS V14.01,2013-05-24 21:57:00,
2013-05-24 18:02:00,52.7,36.1,30.34,North,360,8.0,13.0,53,0.00,,---,0.00,VWS V14.01,2013-05-24 22:02:00,
2013-05-24 18:07:00,52.7,36.5,30.34,North,11,7.0,13.0,54,0.00,,---,0.00,VWS V14.01,2013-05-24 22:07:00,
2013-05-24 18:12:00,52.6,36.9,30.34,North,354,4.0,13.0,55,0.00,,---,0.00,VWS V14.01,2013-05-24 22:12:00,
2013-05-24 18:17:00,52.9,36.2,30.34,North,1,4.0,13.0,53,0.00,,---,0.00,VWS V14.01,2013-05-24 22:17:00,
2013-05-24 18:23:00,53.0,36.8,30.33,NNW,342,5.0,13.0,54,0.00,,---,0.00,VWS V14.01,2013-05-24 22:23:00,
2013-05-24 18:28:00,53.1,37.4,30.33,North,352,4.0,13.0,55,0.00,,---,0.00,VWS V14.01,2013-05-24 22:28:00,
2013-05-24 18:33:00,53.2,36.0,30.33,NNW,338,6.0,13.0,52,0.00,,---,0.00,VWS V14.01,2013-05-24 22:33:00,
2013-05-24 18:38:00,53.2,36.5,30.33,North,6,6.0,13.0,53,0.00,,---,0.00,VWS V14.01,2013-05-24 22:38:00,
2013-05-24 18:43:00,53.4,36.7,30.33,NNW,342,5.0,13.0,53,0.00,,---,0.00,VWS V14.01,2013-05-24 22:43:00,
2013-05-24 18:48:00,53.4,36.7,30.33,WNW,294,3.0,13.0,53,0.00,,---,0.00,VWS V14.01,2013-05-24 22:48:00,
2013-05-24 18:53:00,53.3,36.6,30.32,WNW,302,2.0,13.0,53,0.00,,---,0.00,VWS V14.01,2013-05-24 22:53:00,
2013-05-24 18:58:00,53.3,35.7,30.32,NW,318,3.0,13.0,51,0.00,,---,0.00,VWS V14.01,2013-05-24 22:58:00,
2013-05-24 19:00:00,53.0,36.8,30.34,NNE,33,9.0,14.0,54,0.00,,---,0.00,VWS V14.01,2013-05-24 23:00:00,
2013-05-24 19:03:00,53.4,36.7,30.33,NNE,26,3.0,8.0,53,0.00,,---,0.00,VWS V14.01,2013-05-24 23:03:00,
2013-05-24 19:08:00,53.5,37.8,30.32,NNE,22,3.0,8.0,55,0.00,,---,0.00,VWS V14.01,2013-05-24 23:08:00,
2013-05-24 19:13:00,53.6,36.9,30.32,NNE,13,4.0,8.0,53,0.00,,---,0.00,VWS V14.01,2013-05-24 23:13:00,
2013-05-24 19:18:00,53.6,36.9,30.32,NNW,328,3.0,8.0,53,0.00,,---,0.00,VWS V14.01,2013-05-24 23:18:00,
2013-05-24 19:23:00,53.7,37.5,30.32,NNE,12,1.0,8.0,54,0.00,,---,0.00,VWS V14.01,2013-05-24 23:23:00,
2013-05-24 19:28:00,54.1,37.8,30.32,North,358,4.0,8.0,54,0.00,,---,0.00,VWS V14.01,2013-05-24 23:28:00,
2013-05-24 19:33:00,53.7,37.0,30.32,North,350,1.0,10.0,53,0.00,,---,0.00,VWS V14.01,2013-05-24 23:33:00,
2013-05-24 19:38:00,53.7,37.5,30.31,NE,49,5.0,10.0,54,0.00,,---,0.00,VWS V14.01,2013-05-24 23:38:00,
2013-05-24 19:44:00,53.5,37.8,30.31,North,350,2.0,10.0,55,0.00,,---,0.00,VWS V14.01,2013-05-24 23:44:00,
2013-05-24 19:49:00,53.5,37.8,30.31,NNE,20,6.0,10.0,55,0.00,,---,0.00,VWS V14.01,2013-05-24 23:49:00,
2013-05-24 19:54:00,53.4,38.1,30.31,NNE,23,1.0,10.0,56,0.00,,---,0.00,VWS V14.01,2013-05-24 23:54:00,
2013-05-24 19:59:00,53.4,37.7,30.31,NE,41,2.0,10.0,55,0.00,,---,0.00,VWS V14.01,2013-05-24 23:59:00,
2013-05-24 20:00:00,53.4,36.2,30.32,NNE,23,5.0,13.0,52,0.00,,---,0.00,VWS V14.01,2013-05-25 00:00:00,
2013-05-24 20:04:00,53.1,37.4,30.31,NE,34,2.0,4.0,55,0.00,,---,0.00,VWS V14.01,2013-05-25 00:04:00,
2013-05-24 20:09:00,53.1,37.8,30.31,North,357,2.0,4.0,56,0.00,,---,0.00,VWS V14.01,2013-05-25 00:09:00,
2013-05-24 20:14:00,53.4,38.1,30.31,North,5,1.0,4.0,56,0.00,,---,0.00,VWS V14.01,2013-05-25 00:14:00,
2013-05-24 20:19:00,53.7,37.9,30.31,NNE,12,1.0,4.0,55,0.00,,---,0.00,VWS V14.01,2013-05-25 00:19:00,
2013-05-24 20:24:00,53.7,38.8,30.31,NNE,12,0.0,4.0,57,0.00,,---,0.00,VWS V14.01,2013-05-25 00:24:00,
2013-05-24 20:29:00,53.7,38.4,30.31,NNE,27,2.0,4.0,56,0.00,,---,0.00,VWS V14.01,2013-05-25 00:29:00,
2013-05-24 20:34:00,53.0,38.6,30.31,NNE,25,0.0,4.0,58,0.00,,---,0.00,VWS V14.01,2013-05-25 00:34:00,
2013-05-24 20:39:00,52.5,38.6,30.31,NNE,25,0.0,4.0,59,0.00,,---,0.00,VWS V14.01,2013-05-25 00:39:00,
2013-05-24 20:44:00,51.9,38.9,30.30,NNE,25,1.0,4.0,61,0.00,,---,0.00,VWS V14.01,2013-05-25 00:44:00,
2013-05-24 20:50:00,50.7,40.2,30.30,ENE,70,1.0,4.0,67,0.00,,---,0.00,VWS V14.01,2013-05-25 00:50:00,
2013-05-24 20:55:00,49.7,40.7,30.30,ENE,70,0.0,4.0,71,0.00,,---,0.00,VWS V14.01,2013-05-25 00:55:00,
2013-05-24 21:00:00,48.8,39.8,30.30,ENE,69,0.0,4.0,71,0.00,,---,0.00,VWS V14.01,2013-05-25 01:00:00,
2013-05-24 21:05:00,48.0,40.1,30.30,ENE,70,0.0,0.0,74,0.00,,---,0.00,VWS V14.01,2013-05-25 01:05:00,
2013-05-24 21:10:00,47.3,39.8,30.30,ENE,70,0.0,0.0,75,0.00,,---,0.00,VWS V14.01,2013-05-25 01:10:00,
2013-05-24 21:15:00,46.7,40.2,30.30,ENE,70,0.0,1.0,78,0.00,,---,0.00,VWS V14.01,2013-05-25 01:15:00,
2013-05-24 21:20:00,46.0,39.9,30.30,ENE,76,0.0,1.0,79,0.00,,---,0.00,VWS V14.01,2013-05-25 01:20:00,
2013-05-24 21:25:00,45.5,39.7,30.29,ENE,76,0.0,1.0,80,0.00,,---,0.00,VWS V14.01,2013-05-25 01:25:00,
2013-05-24 21:30:00,45.1,39.3,30.30,ENE,76,0.0,1.0,80,0.00,,---,0.00,VWS V14.01,2013-05-25 01:30:00,
2013-05-24 21:35:00,44.7,39.2,30.30,ENE,76,0.0,1.0,81,0.00,,---,0.00,VWS V14.01,2013-05-25 01:35:00,
2013-05-24 21:40:00,44.3,39.2,30.30,ENE,77,0.0,1.0,82,0.00,,---,0.00,VWS V14.01,2013-05-25 01:40:00,
2013-05-24 21:45:00,43.9,38.8,30.30,ENE,77,0.0,1.0,82,0.00,,---,0.00,VWS V14.01,2013-05-25 01:45:00,
2013-05-24 21:50:00,43.5,39.0,30.31,ENE,76,0.0,1.0,84,0.00,,---,0.00,VWS V14.01,2013-05-25 01:50:00,
2013-05-24 21:55:00,43.4,39.2,30.31,ENE,76,0.0,1.0,85,0.00,,---,0.00,VWS V14.01,2013-05-25 01:55:00,
2013-05-24 22:00:00,43.1,39.2,30.30,ENE,76,0.0,1.0,86,0.00,,---,0.00,VWS V14.01,2013-05-25 02:00:00,
2013-05-24 22:06:00,43.1,39.2,30.31,ENE,77,0.0,0.0,86,0.00,,---,0.00,VWS V14.01,2013-05-25 02:06:00,
2013-05-24 22:11:00,42.9,39.0,30.31,ENE,77,0.0,0.0,86,0.00,,---,0.00,VWS V14.01,2013-05-25 02:11:00,
2013-05-24 22:16:00,42.5,38.6,30.31,ENE,77,0.0,0.0,86,0.00,,---,0.00,VWS V14.01,2013-05-25 02:16:00,
2013-05-24 22:21:00,41.9,38.0,30.31,ENE,77,0.0,0.0,86,0.00,,---,0.00,VWS V14.01,2013-05-25 02:21:00,
2013-05-24 22:26:00,41.6,38.3,30.32,ENE,76,0.0,0.0,88,0.00,,---,0.00,VWS V14.01,2013-05-25 02:26:00,
2013-05-24 22:31:00,41.6,38.6,30.32,ENE,77,0.0,0.0,89,0.00,,---,0.00,VWS V14.01,2013-05-25 02:31:00,
2013-05-24 22:36:00,41.6,38.6,30.33,ENE,76,0.0,0.0,89,0.00,,---,0.00,VWS V14.01,2013-05-25 02:36:00,
2013-05-24 22:41:00,41.5,38.5,30.33,ENE,77,0.0,0.0,89,0.00,,---,0.00,VWS V14.01,2013-05-25 02:41:00,
2013-05-24 22:46:00,41.2,38.2,30.33,ENE,76,0.0,0.0,89,0.00,,---,0.00,VWS V14.01,2013-05-25 02:46:00,
2013-05-24 22:51:00,41.0,38.3,30.33,ENE,77,0.0,0.0,90,0.00,,---,0.00,VWS V14.01,2013-05-25 02:51:00,
2013-05-24 22:56:00,40.8,38.1,30.33,ENE,77,0.0,0.0,90,0.00,,---,0.00,VWS V14.01,2013-05-25 02:56:00,
2013-05-24 23:00:00,43.1,39.2,30.30,ENE,77,0.0,1.0,86,0.00,,---,0.00,VWS V14.01,2013-05-25 03:00:00,
2013-05-24 23:01:00,40.6,38.2,30.33,ENE,77,0.0,0.0,91,0.00,,---,0.00,VWS V14.01,2013-05-25 03:01:00,
2013-05-24 23:07:00,40.3,37.9,30.33,ENE,77,0.0,0.0,91,0.00,,---,0.00,VWS V14.01,2013-05-25 03:07:00,
2013-05-24 23:12:00,40.0,37.6,30.33,ENE,77,0.0,0.0,91,0.00,,---,0.00,VWS V14.01,2013-05-25 03:12:00,
2013-05-24 23:17:00,39.6,37.2,30.34,ENE,77,0.0,0.0,91,0.00,,---,0.00,VWS V14.01,2013-05-25 03:17:00,
2013-05-24 23:22:00,39.9,38.0,30.34,ENE,76,0.0,0.0,93,0.00,,---,0.00,VWS V14.01,2013-05-25 03:22:00,
2013-05-24 23:27:00,40.1,38.2,30.34,ENE,75,1.0,1.0,93,0.00,,---,0.00,VWS V14.01,2013-05-25 03:27:00,
2013-05-24 23:32:00,40.3,38.4,30.34,ENE,75,1.0,1.0,93,0.00,,---,0.00,VWS V14.01,2013-05-25 03:32:00,
2013-05-24 23:37:00,40.3,38.2,30.34,ENE,75,0.0,1.0,92,0.00,,---,0.00,VWS V14.01,2013-05-25 03:37:00,
2013-05-24 23:42:00,40.1,38.0,30.34,ENE,75,0.0,1.0,92,0.00,,---,0.00,VWS V14.01,2013-05-25 03:42:00,
2013-05-24 23:48:00,40.0,38.1,30.34,ENE,75,0.0,1.0,93,0.00,,---,0.00,VWS V14.01,2013-05-25 03:48:00,
2013-05-24 23:53:00,39.8,37.7,30.34,ENE,75,0.0,1.0,92,0.00,,---,0.00,VWS V14.01,2013-05-25 03:53:00,
2013-05-24 23:58:00,39.5,37.7,30.34,ENE,75,0.0,1.0,93,0.00,,---,0.00,VWS V14.01,2013-05-25 03:58:00,